createdAt,value
2022-11-19T00:01:26.311Z,64.42
2022-11-19T00:03:53.825Z,65.14
2022-11-19T00:06:23.953Z,65.32
2022-11-19T00:08:50.996Z,65.10
2022-11-19T00:11:41.980Z,64.16
2022-11-19T00:14:10.730Z,64.64
2022-11-19T00:16:37.907Z,63.95
2022-11-19T00:19:05.548Z,64.01
2022-11-19T00:21:33.058Z,64.11
2022-11-19T00:24:00.278Z,64.53
2022-11-19T00:26:27.796Z,65.11
2022-11-19T00:28:55.395Z,65.25
2022-11-19T00:31:22.987Z,65.16
2022-11-19T00:33:50.878Z,64.91
2022-11-19T00:36:18.241Z,65.15
2022-11-19T00:38:45.841Z,64.48
2022-11-19T00:41:13.007Z,65.71
2022-11-19T00:43:49.660Z,64.40
2022-11-19T00:46:24.344Z,64.40
2022-11-19T00:48:53.857Z,65.71
2022-11-19T00:51:22.512Z,64.88
2022-11-19T00:53:49.714Z,64.61
2022-11-19T00:56:18.990Z,66.24
2022-11-19T00:58:46.780Z,65.69
2022-11-19T01:01:15.843Z,65.84
2022-11-19T01:03:45.683Z,66.53
2022-11-19T01:06:18.897Z,67.18
2022-11-19T01:08:51.435Z,65.84
2022-11-19T01:11:24.022Z,66.34
2022-11-19T01:13:51.578Z,65.72
2022-11-19T01:16:20.258Z,65.54
2022-11-19T01:18:48.899Z,65.73
2022-11-19T01:21:17.754Z,64.71
2022-11-19T01:23:45.361Z,65.15
2022-11-19T01:26:13.289Z,65.11
2022-11-19T01:28:40.750Z,64.85
2022-11-19T01:31:19.097Z,64.84
2022-11-19T01:33:46.634Z,64.70
2022-11-19T01:36:16.255Z,65.37
2022-11-19T01:38:43.525Z,66.75
2022-11-19T01:41:10.859Z,64.91
2022-11-19T01:43:49.887Z,67.81
2022-11-19T01:46:25.112Z,66.82
2022-11-19T01:48:57.251Z,67.15
2022-11-19T01:51:51.462Z,66.08
2022-11-19T01:54:33.707Z,66.20
2022-11-19T01:57:04.040Z,66.87
2022-11-19T01:59:31.580Z,66.50
2022-11-19T02:01:58.992Z,67.54
2022-11-19T02:04:27.135Z,68.57
2022-11-19T02:06:55.338Z,67.54
2022-11-19T02:09:23.375Z,66.92
2022-11-19T02:12:09.182Z,67.14
2022-11-19T02:14:42.280Z,66.27
2022-11-19T02:17:21.975Z,66.77
2022-11-19T02:19:49.102Z,66.53
2022-11-19T02:22:37.485Z,66.84
2022-11-19T02:25:10.751Z,66.45
2022-11-19T02:27:56.197Z,67.25
2022-11-19T02:30:23.889Z,67.56
2022-11-19T02:33:05.183Z,67.69
2022-11-19T02:35:56.812Z,67.04
2022-11-19T02:38:31.077Z,66.77
2022-11-19T02:41:22.636Z,64.92
2022-11-19T02:44:13.047Z,65.26
2022-11-19T02:46:41.019Z,65.02
2022-11-19T02:49:09.039Z,64.82
2022-11-19T02:51:36.368Z,65.07
2022-11-19T02:54:04.972Z,64.38
2022-11-19T02:56:53.204Z,64.50
2022-11-19T02:59:54.778Z,65.08
2022-11-19T03:02:41.400Z,64.67
2022-11-19T03:05:13.032Z,63.64
2022-11-19T03:07:40.466Z,64.74
2022-11-19T03:10:10.542Z,64.86
2022-11-19T03:12:46.039Z,64.22
2022-11-19T03:15:55.151Z,64.13
2022-11-19T03:18:33.299Z,64.55
2022-11-19T03:21:23.244Z,64.24
2022-11-19T03:23:58.010Z,65.23
2022-11-19T03:26:32.613Z,66.10
2022-11-19T03:29:03.594Z,65.67
2022-11-19T03:31:31.756Z,65.72
2022-11-19T03:34:03.003Z,66.69
2022-11-19T03:36:33.041Z,65.56
2022-11-19T03:39:02.996Z,65.89
2022-11-19T03:41:30.876Z,67.15
2022-11-19T03:44:02.260Z,68.29
2022-11-19T03:46:30.635Z,65.70
2022-11-19T03:48:59.671Z,65.06
2022-11-19T03:51:40.684Z,66.25
2022-11-19T03:54:08.455Z,67.06
2022-11-19T03:56:38.393Z,66.97
2022-11-19T03:59:07.788Z,67.17
2022-11-19T04:01:36.824Z,66.18
2022-11-19T04:04:23.500Z,65.64
2022-11-19T04:06:51.095Z,65.64
2022-11-19T04:09:18.969Z,65.15
2022-11-19T04:14:12.608Z,65.65
2022-11-19T04:16:39.794Z,66.17
2022-11-19T04:19:07.147Z,65.84
2022-11-19T04:21:34.443Z,64.64
2022-11-19T04:24:01.765Z,64.43
2022-11-19T04:26:29.021Z,63.72
2022-11-19T04:28:56.235Z,66.14
2022-11-19T04:31:23.512Z,66.79
2022-11-19T04:33:50.759Z,66.45
2022-11-19T04:36:17.923Z,65.77
2022-11-19T04:38:45.133Z,65.59
2022-11-19T04:41:12.496Z,67.50
2022-11-19T04:43:39.688Z,66.96
2022-11-19T04:46:07.061Z,64.24
2022-11-19T04:48:34.196Z,66.82
2022-11-19T04:51:01.470Z,66.15
2022-11-19T04:53:28.757Z,65.73
2022-11-19T04:55:56.028Z,66.70
2022-11-19T04:58:23.254Z,66.75
2022-11-19T05:00:50.531Z,65.66
2022-11-19T05:03:17.789Z,65.37
2022-11-19T05:05:45.550Z,65.99
2022-11-19T05:08:14.368Z,67.43
2022-11-19T05:10:43.113Z,67.02
2022-11-19T05:13:10.469Z,66.55
2022-11-19T05:15:37.800Z,65.24
2022-11-19T05:18:05.147Z,65.67
2022-11-19T05:20:32.353Z,65.16
2022-11-19T05:22:59.571Z,65.23
2022-11-19T05:25:26.784Z,65.49
2022-11-19T05:27:54.075Z,65.30
2022-11-19T05:30:21.298Z,64.98
2022-11-19T05:32:48.600Z,65.58
2022-11-19T05:35:15.847Z,64.74
2022-11-19T05:37:43.035Z,64.69
2022-11-19T05:40:10.582Z,65.14
2022-11-19T05:42:38.142Z,64.13
2022-11-19T05:45:06.084Z,65.54
2022-11-19T05:47:33.924Z,65.34
2022-11-19T05:50:01.113Z,65.29
2022-11-19T05:52:28.276Z,65.56
2022-11-19T05:54:55.565Z,65.96
2022-11-19T05:57:22.972Z,65.76
2022-11-19T05:59:50.214Z,65.85
2022-11-19T06:02:17.788Z,66.88
2022-11-19T06:04:45.520Z,67.36
2022-11-19T06:07:12.752Z,66.88
2022-11-19T06:09:40.089Z,66.45
2022-11-19T06:12:07.539Z,65.97
2022-11-19T06:14:34.862Z,66.84
2022-11-19T06:17:02.117Z,67.09
2022-11-19T06:19:29.439Z,66.47
2022-11-19T06:21:57.262Z,66.63
2022-11-19T06:24:24.508Z,67.94
2022-11-19T06:26:51.754Z,68.33
2022-11-19T06:29:19.346Z,68.23
2022-11-19T06:31:46.943Z,67.78
2022-11-19T06:34:14.480Z,67.99
2022-11-19T06:36:46.236Z,67.14
2022-11-19T06:39:16.782Z,66.89
2022-11-19T06:41:44.201Z,66.63
2022-11-19T06:44:11.450Z,66.86
2022-11-19T06:46:38.774Z,68.98
2022-11-19T06:49:07.028Z,68.10
2022-11-19T06:51:34.221Z,66.86
2022-11-19T06:54:01.447Z,66.91
2022-11-19T06:56:28.645Z,66.43
2022-11-19T06:58:58.139Z,65.64
2022-11-19T07:01:25.441Z,66.14
2022-11-19T07:03:52.752Z,65.23
2022-11-19T07:06:19.967Z,63.55
2022-11-19T07:08:47.134Z,65.05
2022-11-19T07:11:26.414Z,66.40
2022-11-19T07:13:57.603Z,65.72
2022-11-19T07:16:26.445Z,65.51
2022-11-19T07:18:53.679Z,63.39
2022-11-19T07:21:21.083Z,68.89
2022-11-19T07:23:48.268Z,69.73
2022-11-19T07:26:15.557Z,66.91
2022-11-19T07:28:42.816Z,68.25
2022-11-19T07:31:10.448Z,66.81
2022-11-19T07:33:39.346Z,67.33
2022-11-19T07:36:09.886Z,66.19
2022-11-19T07:38:38.903Z,65.72
2022-11-19T07:41:24.813Z,65.71
2022-11-19T07:43:52.003Z,65.59
2022-11-19T07:46:19.333Z,65.60
2022-11-19T07:48:46.732Z,67.49
2022-11-19T07:51:13.980Z,67.21
2022-11-19T07:53:42.759Z,66.80
2022-11-19T07:56:10.049Z,67.22
2022-11-19T07:58:37.276Z,67.01
2022-11-19T08:01:26.971Z,65.11
2022-11-19T08:03:56.793Z,65.97
2022-11-19T08:06:27.628Z,66.04
2022-11-19T08:08:58.826Z,66.42
2022-11-19T08:11:26.065Z,66.68
2022-11-19T08:13:53.401Z,66.20
2022-11-19T08:16:40.030Z,67.97
2022-11-19T08:19:09.669Z,67.28
2022-11-19T08:21:40.767Z,67.00
2022-11-19T08:24:09.278Z,65.68
2022-11-19T08:26:37.201Z,65.73
2022-11-19T08:29:05.290Z,65.53
2022-11-19T08:31:32.677Z,64.72
2022-11-19T08:34:03.702Z,64.84
2022-11-19T08:36:31.149Z,65.30
2022-11-19T08:39:00.365Z,66.08
2022-11-19T08:41:46.832Z,65.44
2022-11-19T08:44:14.515Z,64.63
2022-11-19T08:46:43.324Z,65.07
2022-11-19T08:49:12.078Z,64.11
2022-11-19T08:51:39.332Z,66.98
2022-11-19T08:54:06.555Z,67.43
2022-11-19T08:56:33.780Z,62.77
2022-11-19T08:59:02.955Z,63.54
2022-11-19T09:01:30.980Z,64.15
2022-11-19T09:03:58.674Z,63.21
2022-11-19T09:06:25.976Z,64.14
2022-11-19T09:08:53.332Z,65.13
2022-11-19T09:11:21.527Z,67.61
2022-11-19T09:13:48.876Z,69.03
2022-11-19T09:16:16.380Z,66.87
2022-11-19T09:18:43.799Z,67.70
2022-11-19T09:21:11.679Z,66.44
2022-11-19T09:23:39.468Z,65.24
2022-11-19T09:26:09.204Z,63.88
2022-11-19T09:28:36.557Z,64.52
2022-11-19T09:31:10.435Z,64.72
2022-11-19T09:33:39.158Z,64.70
2022-11-19T09:36:06.686Z,64.48
2022-11-19T09:38:36.747Z,64.38
2022-11-19T09:41:11.484Z,65.08
2022-11-19T09:44:12.101Z,63.00
2022-11-19T09:46:51.458Z,63.71
2022-11-19T09:49:24.508Z,64.40
2022-11-19T09:51:56.413Z,63.45
2022-11-19T09:54:23.844Z,62.96
2022-11-19T09:56:54.596Z,63.30
2022-11-19T09:59:27.934Z,62.44
2022-11-19T10:01:55.274Z,63.53
2022-11-19T10:04:25.375Z,62.96
2022-11-19T10:06:52.442Z,64.04
2022-11-19T10:09:39.851Z,63.26
2022-11-19T10:12:13.120Z,62.21
2022-11-19T10:14:59.090Z,62.35
2022-11-19T10:18:01.467Z,61.65
2022-11-19T10:20:34.524Z,63.73
2022-11-19T10:23:13.843Z,62.99
2022-11-19T10:25:44.782Z,62.12
2022-11-19T10:28:16.335Z,61.55
2022-11-19T10:30:50.883Z,60.89
2022-11-19T10:33:37.949Z,60.88
2022-11-19T10:36:09.190Z,61.96
2022-11-19T10:38:51.385Z,61.13
2022-11-19T10:41:27.174Z,60.93
2022-11-19T10:44:01.991Z,64.74
2022-11-19T10:46:29.282Z,64.48
2022-11-19T10:48:58.756Z,62.73
2022-11-19T10:51:31.158Z,65.72
2022-11-19T10:53:58.918Z,64.85
2022-11-19T10:56:44.219Z,67.63
2022-11-19T10:59:13.849Z,69.35
2022-11-19T11:01:43.161Z,70.54
2022-11-19T11:04:25.458Z,68.71
2022-11-19T11:07:03.748Z,69.25
2022-11-19T11:09:42.527Z,68.97
2022-11-19T11:12:34.608Z,66.24
2022-11-19T11:15:13.313Z,67.22
2022-11-19T11:17:42.464Z,71.63
2022-11-19T11:20:18.800Z,71.04
2022-11-19T11:22:48.786Z,70.06
2022-11-19T11:25:23.008Z,69.67
2022-11-19T11:28:08.754Z,67.66
2022-11-19T11:30:36.012Z,66.65
2022-11-19T11:33:26.247Z,65.04
2022-11-19T11:35:53.590Z,64.46
2022-11-19T11:38:22.792Z,63.36
2022-11-19T11:44:03.639Z,65.85
2022-11-19T11:46:44.371Z,66.38
2022-11-19T11:49:22.095Z,65.27
2022-11-19T11:52:04.138Z,65.85
2022-11-19T11:54:31.647Z,68.18
2022-11-19T11:57:20.043Z,66.27
2022-11-19T11:59:47.875Z,65.46
2022-11-19T12:02:21.238Z,65.44
2022-11-19T12:04:51.697Z,63.63
2022-11-19T12:07:42.140Z,62.68
2022-11-19T12:10:38.555Z,60.83
2022-11-19T12:13:43.912Z,60.55
2022-11-19T12:16:14.638Z,59.64
2022-11-19T12:19:00.644Z,58.56
2022-11-19T12:21:50.560Z,58.08
2022-11-19T12:24:40.217Z,59.10
2022-11-19T12:27:47.913Z,58.94
2022-11-19T12:30:20.159Z,64.21
2022-11-19T12:33:14.948Z,61.70
2022-11-19T12:35:49.617Z,59.63
2022-11-19T12:38:42.481Z,58.95
2022-11-19T12:41:37.545Z,58.60
2022-11-19T12:44:20.580Z,58.60
2022-11-19T12:46:55.727Z,57.67
2022-11-19T12:49:23.031Z,59.75
2022-11-19T12:52:09.115Z,66.84
2022-11-19T12:54:55.318Z,66.55
2022-11-19T12:57:45.523Z,68.67
2022-11-19T13:00:18.811Z,69.98
2022-11-19T13:03:04.207Z,67.16
2022-11-19T13:05:47.878Z,65.63
2022-11-19T13:08:30.288Z,64.54
2022-11-19T13:11:08.594Z,65.54
2022-11-19T13:13:39.192Z,65.27
2022-11-19T13:16:15.702Z,65.37
2022-11-19T13:18:54.640Z,64.75
2022-11-19T13:21:32.455Z,64.26
2022-11-19T13:24:32.980Z,63.22
2022-11-19T13:27:04.160Z,62.81
2022-11-19T13:29:42.736Z,62.89
2022-11-19T13:32:20.906Z,61.40
2022-11-19T13:34:59.743Z,63.52
2022-11-19T13:37:45.528Z,63.51
2022-11-19T13:40:26.278Z,61.29
2022-11-19T13:46:44.588Z,64.19
2022-11-19T13:49:14.359Z,66.12
2022-11-19T13:51:48.850Z,64.68
2022-11-19T13:54:27.944Z,66.02
2022-11-19T13:56:57.541Z,68.06
2022-11-19T13:59:31.963Z,66.64
2022-11-19T14:02:04.232Z,66.05
2022-11-19T14:04:50.280Z,65.74
2022-11-19T14:07:33.740Z,60.75
2022-11-19T14:10:15.810Z,63.62
2022-11-19T14:12:58.244Z,62.65
2022-11-19T14:16:08.928Z,64.31
2022-11-19T14:19:00.433Z,65.04
2022-11-19T14:21:46.225Z,64.55
2022-11-19T14:24:44.036Z,63.95
2022-11-19T14:27:27.910Z,62.58
2022-11-19T14:30:02.218Z,60.04
2022-11-19T14:32:47.186Z,60.47
2022-11-19T14:35:27.188Z,60.39
2022-11-19T14:38:02.157Z,60.49
2022-11-19T14:40:31.963Z,63.28
2022-11-19T14:43:21.084Z,64.92
2022-11-19T14:46:07.514Z,65.44
2022-11-19T14:48:38.904Z,66.25
2022-11-19T14:51:30.808Z,63.58
2022-11-19T14:54:00.866Z,61.86
2022-11-19T14:56:28.201Z,63.97
2022-11-19T14:58:59.866Z,65.38
2022-11-19T15:01:27.118Z,66.83
2022-11-19T15:04:00.808Z,63.98
2022-11-19T15:06:28.684Z,65.94
2022-11-19T15:08:59.072Z,65.39
2022-11-19T15:11:55.637Z,63.83
2022-11-19T15:14:29.175Z,67.28
2022-11-19T15:16:58.573Z,65.07
2022-11-19T15:19:30.743Z,64.63
2022-11-19T15:22:10.731Z,64.67
2022-11-19T15:24:59.575Z,65.63
2022-11-19T15:27:47.453Z,64.08
2022-11-19T15:30:21.142Z,65.32
2022-11-19T15:33:03.553Z,66.62
2022-11-19T15:35:39.613Z,65.72
2022-11-19T15:38:31.407Z,67.08
2022-11-19T15:41:00.228Z,68.80
2022-11-19T15:43:31.225Z,67.46
2022-11-19T15:46:10.255Z,66.33
2022-11-19T15:48:59.299Z,68.45
2022-11-19T15:51:26.544Z,63.85
2022-11-19T15:54:10.830Z,65.38
2022-11-19T15:56:39.749Z,64.02
2022-11-19T15:59:08.330Z,66.59
2022-11-19T16:01:36.064Z,67.02
2022-11-19T16:04:06.501Z,64.12
2022-11-19T16:06:33.944Z,60.21
2022-11-19T16:09:05.878Z,62.37
2022-11-19T16:11:54.798Z,64.14
2022-11-19T16:14:45.579Z,68.09
2022-11-19T16:17:41.587Z,66.24
2022-11-19T16:20:10.953Z,66.84
2022-11-19T16:22:44.183Z,64.38
2022-11-19T16:25:19.942Z,67.89
2022-11-19T16:27:47.718Z,66.52
2022-11-19T16:30:19.633Z,68.80
2022-11-19T16:32:48.287Z,69.79
2022-11-19T16:35:24.684Z,72.76
2022-11-19T16:37:53.671Z,71.57
2022-11-19T16:40:21.328Z,66.37
2022-11-19T16:42:56.753Z,67.63
2022-11-19T16:45:28.967Z,66.52
2022-11-19T16:47:58.427Z,68.34
2022-11-19T16:50:32.664Z,66.69
2022-11-19T16:53:00.758Z,64.18
2022-11-19T16:55:28.941Z,62.96
2022-11-19T16:57:58.248Z,61.80
2022-11-19T17:00:30.813Z,61.71
2022-11-19T17:02:58.262Z,68.46
2022-11-19T17:05:28.598Z,68.87
2022-11-19T17:08:08.212Z,66.05
2022-11-19T17:10:35.763Z,64.80
2022-11-19T17:13:14.827Z,61.36
2022-11-19T17:15:43.766Z,62.71
2022-11-19T17:18:26.640Z,62.91
2022-11-19T17:21:00.265Z,61.44
2022-11-19T17:23:31.968Z,60.90
2022-11-19T17:26:05.028Z,65.04
2022-11-19T17:28:41.610Z,63.58
2022-11-19T17:31:21.106Z,62.24
2022-11-19T17:34:18.195Z,61.33
2022-11-19T17:36:45.849Z,60.74
2022-11-19T17:39:14.758Z,61.61
2022-11-19T17:42:01.861Z,59.84
2022-11-19T17:44:36.617Z,59.34
2022-11-19T17:47:07.413Z,58.87
2022-11-19T17:49:48.310Z,58.98
2022-11-19T17:52:25.642Z,59.14
2022-11-19T17:54:55.705Z,59.33
2022-11-19T17:57:22.985Z,59.42
2022-11-19T17:59:50.224Z,58.67
2022-11-19T18:02:19.663Z,59.02
2022-11-19T18:04:47.680Z,59.38
2022-11-19T18:07:15.132Z,58.89
2022-11-19T18:09:42.613Z,64.37
2022-11-19T18:12:16.624Z,61.44
2022-11-19T18:14:44.442Z,60.90
2022-11-19T18:17:13.079Z,61.33
2022-11-19T18:19:40.819Z,59.81
2022-11-19T18:22:16.910Z,60.13
2022-11-19T18:24:45.862Z,63.27
2022-11-19T18:27:13.185Z,61.40
2022-11-19T18:29:40.614Z,63.18
2022-11-19T18:32:10.970Z,61.25
2022-11-19T18:34:38.188Z,60.50
2022-11-19T18:37:05.358Z,59.58
2022-11-19T18:39:32.660Z,59.53
2022-11-19T18:41:59.984Z,58.58
2022-11-19T18:44:33.398Z,58.36
2022-11-19T18:47:05.388Z,58.64
2022-11-19T18:49:35.969Z,58.33
2022-11-19T18:52:05.316Z,58.19
2022-11-19T18:54:32.683Z,58.47
2022-11-19T18:57:00.284Z,57.91
2022-11-19T18:59:27.633Z,59.25
2022-11-19T19:01:55.787Z,59.35
2022-11-19T19:04:23.966Z,59.54
2022-11-19T19:06:51.324Z,58.93
2022-11-19T19:09:20.447Z,58.65
2022-11-19T19:12:13.361Z,58.21
2022-11-19T19:14:47.060Z,58.85
2022-11-19T19:17:15.463Z,58.72
2022-11-19T19:19:42.667Z,58.90
2022-11-19T19:22:10.297Z,58.47
2022-11-19T19:24:37.645Z,57.79
2022-11-19T19:27:05.380Z,57.06
2022-11-19T19:29:32.690Z,60.40
2022-11-19T19:32:00.081Z,61.24
2022-11-19T19:34:28.493Z,60.84
2022-11-19T19:36:55.895Z,62.34
2022-11-19T19:39:23.296Z,63.59
2022-11-19T19:41:51.032Z,62.57
2022-11-19T19:44:18.385Z,62.57
2022-11-19T19:46:48.556Z,59.82
2022-11-19T19:49:15.724Z,59.16
2022-11-19T19:51:42.834Z,58.33
2022-11-19T19:54:10.052Z,57.38
2022-11-19T19:56:37.316Z,56.51
2022-11-19T19:59:04.618Z,57.79
2022-11-19T20:01:34.154Z,58.57
2022-11-19T20:04:07.370Z,58.92
2022-11-19T20:06:37.514Z,57.86
2022-11-19T20:09:08.795Z,59.13
2022-11-19T20:11:38.112Z,58.51
2022-11-19T20:14:06.378Z,61.06
2022-11-19T20:16:34.176Z,62.49
2022-11-19T20:19:02.008Z,61.95
2022-11-19T20:21:36.097Z,60.13
2022-11-19T20:24:08.776Z,59.92
2022-11-19T20:26:39.730Z,59.48
2022-11-19T20:29:07.181Z,59.81
2022-11-19T20:31:34.612Z,59.56
2022-11-19T20:34:03.571Z,58.58
2022-11-19T20:36:33.245Z,57.88
2022-11-19T20:39:00.945Z,59.16
2022-11-19T20:41:48.904Z,60.19
2022-11-19T20:44:20.933Z,58.72
2022-11-19T20:46:51.036Z,60.22
2022-11-19T20:49:19.747Z,59.08
2022-11-19T20:51:48.635Z,59.44
2022-11-19T20:54:16.236Z,59.48
2022-11-19T20:56:43.606Z,59.86
2022-11-19T20:59:12.208Z,59.69
2022-11-19T21:01:39.736Z,59.53
2022-11-19T21:04:07.464Z,59.08
2022-11-19T21:06:34.861Z,59.03
2022-11-19T21:09:02.218Z,59.93
2022-11-19T21:11:29.586Z,58.29
2022-11-19T21:13:57.105Z,58.29
2022-11-19T21:16:25.355Z,58.11
2022-11-19T21:18:52.647Z,57.42
2022-11-19T21:21:21.871Z,58.20
2022-11-19T21:23:49.071Z,58.04
2022-11-19T21:26:21.141Z,57.83
2022-11-19T21:28:54.038Z,57.48
2022-11-19T21:31:41.401Z,57.75
2022-11-19T21:34:20.392Z,57.72
2022-11-19T21:36:48.515Z,58.61
2022-11-19T21:39:17.149Z,56.96
2022-11-19T21:41:44.845Z,58.59
2022-11-19T21:44:15.417Z,60.73
2022-11-19T21:46:47.023Z,59.04
2022-11-19T21:49:14.276Z,60.21
2022-11-19T21:51:41.634Z,60.22
2022-11-19T21:54:08.914Z,60.00
2022-11-19T21:56:38.872Z,58.09
2022-11-19T21:59:07.311Z,59.73
2022-11-19T22:01:34.922Z,59.49
2022-11-19T22:04:02.537Z,58.89
2022-11-19T22:06:31.178Z,58.25
2022-11-19T22:08:58.388Z,57.79
2022-11-19T22:11:28.497Z,58.22
2022-11-19T22:14:02.744Z,57.72
2022-11-19T22:16:31.389Z,59.01
2022-11-19T22:18:58.821Z,57.64
2022-11-19T22:21:29.437Z,56.84
2022-11-19T22:23:56.885Z,57.08
2022-11-19T22:26:24.438Z,56.47
2022-11-19T22:28:51.720Z,56.13
2022-11-19T22:31:18.967Z,56.81
2022-11-19T22:33:49.707Z,58.11
2022-11-19T22:36:18.315Z,59.45
2022-11-19T22:38:45.731Z,58.71
2022-11-19T22:41:15.828Z,57.49
2022-11-19T22:43:43.278Z,55.14
2022-11-19T22:46:11.530Z,55.80
2022-11-19T22:48:39.083Z,55.19
2022-11-19T22:51:08.653Z,55.09
2022-11-19T22:53:36.656Z,54.78
2022-11-19T22:56:06.057Z,54.67
2022-11-19T22:58:34.119Z,55.60
2022-11-19T23:01:01.548Z,56.34
2022-11-19T23:03:29.060Z,55.58
2022-11-19T23:05:59.090Z,56.05
2022-11-19T23:08:26.427Z,55.54
2022-11-19T23:11:04.864Z,55.98
2022-11-19T23:13:34.796Z,54.67
2022-11-19T23:16:07.763Z,54.78
2022-11-19T23:18:38.311Z,54.97
2022-11-19T23:21:07.056Z,55.71
2022-11-19T23:23:34.742Z,55.37
2022-11-19T23:26:03.383Z,55.84
2022-11-19T23:28:31.604Z,55.23
2022-11-19T23:31:07.085Z,56.27
2022-11-19T23:33:34.420Z,55.05
2022-11-19T23:36:05.875Z,56.15
2022-11-19T23:38:34.755Z,55.46
2022-11-19T23:41:03.117Z,55.44
2022-11-19T23:43:30.733Z,55.70
2022-11-19T23:46:08.888Z,54.97
2022-11-19T23:48:37.139Z,55.11
2022-11-19T23:51:12.888Z,54.37
2022-11-19T23:53:40.634Z,54.31
2022-11-19T23:56:08.792Z,54.26
2022-11-19T23:58:36.788Z,54.00
